Time;durP1;ratioP1;P1;durP2;ratioP2;P2;SDS_P1;SDS_P2;PMS_P1;PMS_P2;Temp;Humidity;BMP_temperature;BMP_pressure;BME280_temperature;BME280_humidity;BME280_pressure;Samples;Min_cycle;Max_cycle;Signal;HPM_P1;HPM_P2
2022/06/28 00:00:07;;;;;;;10.83;5.50;;;21.00;99.30;;;21.45;65.81;95220.47;5123490;27;20484;-55
2022/06/28 00:02:34;;;;;;;11.17;5.77;;;21.00;99.30;;;21.44;65.89;95219.66;5111993;27;21049;-52
2022/06/28 00:05:01;;;;;;;14.33;5.93;;;21.00;99.40;;;21.42;65.60;95221.69;5120367;27;20472;-53
2022/06/28 00:07:29;;;;;;;14.40;6.00;;;20.90;99.20;;;21.40;65.59;95229.09;5124107;27;20452;-59
2022/06/28 00:09:56;;;;;;;15.20;6.90;;;20.90;99.20;;;21.35;65.35;95214.66;5121277;28;20476;-55
2022/06/28 00:12:26;;;;;;;16.00;5.50;;;20.90;99.10;;;21.37;65.63;95218.78;5123717;28;20448;-51
2022/06/28 00:17:38;;;;;;;9.57;5.10;;;20.90;99.00;;;21.34;65.37;95219.19;5125622;27;20439;-53
2022/06/28 00:20:06;;;;;;;19.03;5.43;;;20.80;99.00;;;21.32;65.18;95223.94;5121375;27;20492;-55
2022/06/28 00:22:33;;;;;;;19.13;6.30;;;20.80;98.90;;;21.30;65.06;95216.09;5123328;27;20448;-55
2022/06/28 00:25:01;;;;;;;13.07;5.77;;;20.80;98.90;;;21.28;64.81;95215.44;5121080;27;20483;-54
2022/06/28 00:27:29;;;;;;;13.33;5.37;;;20.80;98.60;;;21.25;64.95;95220.38;5125459;27;20538;-52
2022/06/28 00:29:58;;;;;;;16.47;4.93;;;20.80;98.60;;;21.21;65.10;95216.44;5120560;27;20483;-54
2022/06/28 00:32:25;;;;;;;7.90;5.13;;;20.70;98.80;;;21.21;65.14;95227.97;5124819;27;20467;-53
2022/06/28 00:34:52;;;;;;;15.60;6.00;;;20.70;99.00;;;21.20;65.47;95217.47;5121819;27;20456;-54
2022/06/28 00:37:20;;;;;;;23.53;6.77;;;20.70;99.00;;;21.17;65.52;95221.38;5122173;27;20460;-56
2022/06/28 00:39:47;;;;;;;17.00;6.20;;;20.70;99.10;;;21.16;65.66;95218.88;5119981;27;20492;-54
2022/06/28 00:42:15;;;;;;;10.47;5.30;;;20.60;99.20;;;21.13;65.26;95220.94;5118487;27;20448;-54
2022/06/28 00:44:44;;;;;;;12.03;5.73;;;20.60;99.00;;;21.10;65.30;95215.13;5123383;27;20545;-54
2022/06/28 00:47:11;;;;;;;25.10;5.67;;;20.60;98.70;;;21.05;64.98;95215.75;5123604;27;20452;-54
2022/06/28 00:49:40;;;;;;;21.50;5.53;;;20.60;98.70;;;21.01;64.89;95216.34;5119687;27;20510;-54
2022/06/28 00:52:08;;;;;;;15.97;4.87;;;20.60;98.70;;;20.99;65.18;95221.88;5119223;27;20506;-53
2022/06/28 00:54:35;;;;;;;15.27;6.53;;;20.50;98.80;;;20.96;65.04;95227.63;5120940;27;20452;-54
2022/06/28 00:57:02;;;;;;;13.10;6.20;;;20.50;98.90;;;20.95;65.48;95234.81;5119773;27;20452;-55
2022/06/28 00:59:30;;;;;;;14.23;5.63;;;20.50;99.20;;;20.94;65.77;95227.81;5119216;27;20568;-55
2022/06/28 01:01:59;;;;;;;22.10;5.90;;;20.50;99.50;;;20.93;65.65;95225.34;5119176;27;20481;-54
2022/06/28 01:04:26;;;;;;;9.03;5.37;;;20.40;99.40;;;20.91;65.92;95222.88;5122831;27;20449;-53
2022/06/28 01:06:54;;;;;;;7.27;5.00;;;20.50;99.50;;;20.90;65.69;95231.09;5122089;27;20554;-54
2022/06/28 01:09:21;;;;;;;18.83;6.47;;;20.40;99.40;;;20.88;65.78;95231.28;5127519;27;20991;-53
2022/06/28 01:11:48;;;;;;;20.00;5.37;;;20.40;99.70;;;20.87;65.49;95223.44;5124215;27;20472;-55
2022/06/28 01:14:16;;;;;;;18.67;5.07;;;20.40;99.20;;;20.83;65.24;95222.19;5126607;27;20483;-55
2022/06/28 01:16:43;;;;;;;11.43;4.87;;;20.40;98.90;;;20.77;64.97;95216.59;5123444;27;20851;-54
2022/06/28 01:19:12;;;;;;;10.17;4.80;;;20.30;98.70;;;20.74;64.96;95224.16;5127788;27;20838;-54
2022/06/28 01:21:39;;;;;;;6.80;5.13;;;20.30;98.70;;;20.69;65.40;95215.91;5118523;27;20483;-54
2022/06/28 01:24:09;;;;;;;9.67;4.60;;;20.20;98.70;;;20.65;65.31;95223.50;5124894;27;20463;-55
2022/06/28 01:26:36;;;;;;;5.43;4.80;;;20.20;98.80;;;20.63;65.22;95216.66;5127764;27;20480;-55
2022/06/28 01:29:04;;;;;;;11.10;4.90;;;20.20;98.90;;;20.60;65.34;95223.19;5123842;27;20463;-55
2022/06/28 01:31:31;;;;;;;14.33;5.43;;;20.20;99.00;;;20.58;65.33;95212.72;5119250;27;20484;-56
2022/06/28 01:33:58;;;;;;;5.63;4.90;;;20.10;99.00;;;20.56;65.29;95219.28;5124586;27;20456;-54
2022/06/28 01:36:26;;;;;;;13.70;6.17;;;20.10;99.20;;;20.54;65.66;95222.16;5117784;27;20476;-54
2022/06/28 01:38:53;;;;;;;14.00;5.17;;;20.10;99.20;;;20.53;65.67;95220.50;5123453;27;20460;-56
2022/06/28 01:41:33;;;;;;;7.20;4.90;;;20.10;99.40;;;20.49;65.89;95224.56;5124636;27;20500;-54
2022/06/28 01:44:02;;;;;;;11.53;4.80;;;20.00;99.30;;;20.48;65.94;95228.25;5119549;27;20464;-55
2022/06/28 01:46:29;;;;;;;6.20;4.17;;;20.00;99.50;;;20.47;66.15;95231.13;5124845;27;20498;-54
2022/06/28 01:48:57;;;;;;;9.50;5.10;;;20.00;99.30;;;20.44;66.09;95218.97;5126631;27;20456;-53
2022/06/28 01:51:24;;;;;;;9.17;5.10;;;20.00;99.30;;;20.42;66.38;95224.50;5124279;27;20483;-55
2022/06/28 01:53:51;;;;;;;8.93;5.90;;;20.00;99.50;;;20.41;66.28;95225.50;5121096;27;20464;-56
2022/06/28 01:56:19;;;;;;;13.83;6.03;;;20.00;99.30;;;20.40;65.92;95218.53;5125555;27;21188;-55
2022/06/28 01:58:47;;;;;;;7.20;5.33;;;19.90;99.20;;;20.40;65.90;95218.53;5126271;27;20459;-55
2022/06/28 02:01:15;;;;;;;7.70;5.13;;;19.90;99.30;;;20.38;66.06;95219.75;5122050;27;20615;-55
2022/06/28 02:03:42;;;;;;;12.33;5.80;;;19.90;99.50;;;20.37;66.14;95215.41;5124989;27;20983;-55
2022/06/28 02:06:09;;;;;;;8.47;5.00;;;19.90;99.50;;;20.35;66.00;95223.59;5121055;27;20480;-54
2022/06/28 02:08:37;;;;;;;10.70;4.80;;;19.90;99.40;;;20.33;65.68;95219.50;5127612;27;20814;-53
2022/06/28 02:11:05;;;;;;;24.40;5.80;;;19.90;99.30;;;20.30;65.94;95223.38;5123214;27;20468;-56
2022/06/28 02:13:32;;;;;;;15.70;5.47;;;19.90;99.30;;;20.27;65.88;95220.25;5121115;27;20474;-55
2022/06/28 02:16:02;;;;;;;7.93;5.50;;;19.80;99.20;;;20.24;66.21;95221.47;5120955;27;20481;-53
2022/06/28 02:18:32;;;;;;;11.53;4.53;;;19.80;99.40;;;20.21;65.92;95221.84;5123795;27;20444;-54
2022/06/28 02:20:59;;;;;;;10.20;5.07;;;19.80;99.50;;;20.17;66.39;95215.22;5121294;27;20979;-52
2022/06/28 02:23:26;;;;;;;11.83;4.90;;;19.70;99.60;;;20.20;66.64;95225.53;5120321;27;20453;-55
2022/06/28 02:25:54;;;;;;;19.47;4.70;;;19.70;99.60;;;20.17;66.76;95217.88;5125752;27;20872;-54
2022/06/28 02:28:22;;;;;;;5.43;4.53;;;19.70;99.70;;;20.15;66.56;95218.06;5120173;27;21092;-54
2022/06/28 02:30:49;;;;;;;16.07;5.57;;;19.70;99.80;;;20.15;66.13;95217.25;5121313;27;21057;-54
2022/06/28 02:33:17;;;;;;;5.77;5.20;;;19.70;99.80;;;20.15;66.42;95219.94;5125414;27;20468;-57
2022/06/28 02:41:14;;;;;;;5.70;5.20;;;19.70;99.90;;;20.15;66.36;95222.59;5120173;27;20501;-53
2022/06/28 02:43:41;;;;;;;7.60;5.60;;;19.70;99.90;;;20.14;66.34;95220.94;5126100;27;20495;-54
2022/06/28 02:46:08;;;;;;;9.27;5.50;;;19.70;99.80;;;20.12;66.36;95223.81;5118744;27;20479;-55
2022/06/28 02:48:37;;;;;;;6.00;5.03;;;19.70;99.80;;;20.11;66.39;95226.66;5123488;27;20479;-53
2022/06/28 02:51:04;;;;;;;16.93;6.03;;;19.70;99.90;;;20.09;66.50;95215.34;5119280;27;21234;-53
2022/06/28 02:53:32;;;;;;;9.37;5.40;;;19.60;99.80;;;20.11;66.50;95222.16;5125423;27;20457;-55
2022/06/28 02:55:59;;;;;;;12.63;6.30;;;19.60;99.90;;;20.11;66.93;95221.31;5116263;27;21092;-54
2022/06/28 02:58:26;;;;;;;9.43;5.93;;;19.70;99.90;;;20.10;66.78;95217.84;5125888;27;20461;-55
2022/06/28 03:00:54;;;;;;;6.00;5.37;;;19.60;99.90;;;20.10;66.82;95219.69;5121833;27;20496;-54
2022/06/28 03:03:21;;;;;;;11.23;4.60;;;19.60;99.90;;;20.10;66.54;95225.03;5114398;27;20464;-52
2022/06/28 03:05:50;;;;;;;12.70;5.23;;;19.60;99.90;;;20.11;67.08;95219.50;5121122;27;20480;-54
2022/06/28 03:08:17;;;;;;;7.80;5.37;;;19.60;99.90;;;20.13;66.87;95214.78;5123762;27;20460;-57
2022/06/28 03:10:44;;;;;;;5.83;5.43;;;19.70;99.90;;;20.13;67.04;95214.78;5120648;27;20475;-53
2022/06/28 03:13:12;;;;;;;9.73;5.80;;;19.70;99.90;;;20.13;66.43;95214.78;5120705;27;20948;-54
2022/06/28 03:15:39;;;;;;;5.40;5.00;;;19.70;99.90;;;20.13;66.49;95213.97;5124643;27;21011;-55
2022/06/28 03:18:07;;;;;;;15.63;6.10;;;19.70;99.90;;;20.13;66.61;95208.63;5119242;27;20448;-54
2022/06/28 03:20:34;;;;;;;8.17;6.37;;;19.70;99.90;;;20.12;66.62;95214.97;5120511;27;20480;-55
2022/06/28 03:23:03;;;;;;;8.40;6.27;;;19.70;99.90;;;20.12;66.96;95217.66;5120268;27;20478;-52
2022/06/28 03:25:30;;;;;;;8.57;5.53;;;19.70;99.90;;;20.11;66.75;95219.50;5123936;27;20480;-54
2022/06/28 03:27:57;;;;;;;6.13;5.53;;;19.70;99.90;;;20.10;66.38;95219.69;5124617;27;20568;-55
2022/06/28 03:30:24;;;;;;;7.17;5.40;;;19.70;99.90;;;20.08;66.93;95216.38;5118172;27;20483;-55
2022/06/28 03:32:52;;;;;;;18.00;6.40;;;19.60;99.90;;;20.04;66.78;95213.25;5122747;27;20469;-55
2022/06/28 03:35:19;;;;;;;12.57;5.87;;;19.60;99.90;;;19.99;66.29;95219.16;5124208;27;20480;-56
2022/06/28 03:37:46;;;;;;;10.73;6.67;;;19.60;99.80;;;19.97;66.84;95220.38;5125816;27;20992;-54
2022/06/28 03:40:15;;;;;;;12.00;6.20;;;19.60;99.90;;;19.96;66.71;95224.06;5123027;27;20495;-54
2022/06/28 03:42:42;;;;;;;7.10;5.80;;;19.50;99.90;;;19.93;66.70;95224.44;5117027;27;20465;-56
2022/06/28 03:45:11;;;;;;;6.53;6.10;;;19.50;99.90;;;19.89;66.74;95223.97;5117982;27;20472;-56
2022/06/28 03:47:38;;;;;;;9.47;6.83;;;19.50;99.90;;;19.82;67.12;95237.25;5116107;27;20844;-54
2022/06/28 03:50:06;;;;;;;7.60;5.43;;;19.40;99.90;;;19.82;66.67;95239.13;5117544;27;20471;-54
2022/06/28 03:52:33;;;;;;;6.17;5.77;;;19.40;99.90;;;19.82;66.73;95247.94;5118864;27;20460;-54
2022/06/28 03:55:01;;;;;;;7.53;6.43;;;19.40;99.90;;;19.83;67.00;95246.09;5124567;27;20476;-55
2022/06/28 03:57:29;;;;;;;6.80;6.07;;;19.40;99.90;;;19.84;67.09;95248.56;5124805;27;20463;-54
2022/06/28 03:59:57;;;;;;;10.80;5.97;;;19.40;99.90;;;19.90;66.86;95247.00;5124472;27;20513;-55
2022/06/28 04:02:24;;;;;;;7.20;6.53;;;19.40;99.90;;;19.95;66.50;95247.25;5123840;27;20819;-55
2022/06/28 04:04:51;;;;;;;12.20;5.77;;;19.50;99.90;;;20.01;66.53;95253.69;5121053;27;20441;-52
2022/06/28 04:07:19;;;;;;;6.20;5.70;;;19.50;99.90;;;20.05;66.69;95250.44;5120883;27;20968;-55
2022/06/28 04:09:46;;;;;;;6.40;5.80;;;19.60;99.90;;;20.10;66.07;95252.56;5126343;28;20471;-55
2022/06/28 04:12:13;;;;;;;8.00;6.13;;;19.60;99.90;;;20.14;66.28;95258.34;5122975;28;20883;-54
2022/06/28 04:14:42;;;;;;;9.70;6.07;;;19.70;99.90;;;20.16;66.47;95261.66;5125731;28;20448;-55
2022/06/28 04:17:09;;;;;;;6.07;5.53;;;19.70;99.90;;;20.18;66.23;95259.63;5121825;28;20505;-55
2022/06/28 04:19:38;;;;;;;5.97;5.57;;;19.70;99.90;;;20.22;65.87;95261.72;5117229;28;20844;-54
2022/06/28 04:22:06;;;;;;;6.07;5.37;;;19.70;99.80;;;20.25;66.30;95268.53;5123641;28;20491;-56
2022/06/28 04:24:33;;;;;;;9.17;6.03;;;19.80;99.90;;;20.30;66.33;95273.31;5122181;27;20488;-56
2022/06/28 04:27:01;;;;;;;6.53;5.77;;;19.80;99.90;;;20.32;66.51;95272.09;5125842;28;20952;-57
2022/06/28 04:29:28;;;;;;;9.30;6.70;;;19.80;99.80;;;20.37;66.13;95263.50;5117691;28;20510;-53
2022/06/28 04:31:57;;;;;;;9.10;7.33;;;19.90;99.80;;;20.40;66.25;95268.47;5125634;28;20480;-54
2022/06/28 04:34:24;;;;;;;9.63;6.27;;;19.90;99.80;;;20.44;66.24;95266.25;5120448;28;20448;-55
2022/06/28 04:36:52;;;;;;;6.80;6.10;;;20.00;99.80;;;20.46;66.33;95256.19;5121836;28;20480;-56
2022/06/28 04:39:19;;;;;;;11.80;7.37;;;20.00;99.80;;;20.50;66.36;95265.47;5118393;28;20459;-54
2022/06/28 04:41:47;;;;;;;10.77;7.37;;;20.00;99.80;;;20.53;66.17;95278.47;5120167;28;20527;-56
2022/06/28 04:44:14;;;;;;;24.23;10.80;;;20.00;99.90;;;20.56;66.41;95283.44;5115988;28;21089;-56
2022/06/28 04:46:41;;;;;;;23.63;9.77;;;20.10;99.90;;;20.60;66.24;95284.69;5119428;28;20516;-56
2022/06/28 04:49:10;;;;;;;11.23;8.20;;;20.20;99.90;;;20.65;66.30;95271.63;5116265;28;20455;-54
2022/06/28 04:51:37;;;;;;;10.97;9.73;;;20.20;99.90;;;20.68;66.37;95276.56;5119722;28;20483;-53
2022/06/28 04:54:05;;;;;;;9.93;8.93;;;20.20;99.90;;;20.72;66.39;95283.16;5118627;28;20456;-55
2022/06/28 04:56:32;;;;;;;14.70;8.93;;;20.20;99.90;;;20.74;66.35;95275.81;5118743;28;20487;-55
2022/06/28 04:58:59;;;;;;;15.07;8.93;;;20.30;99.90;;;20.78;66.71;95269.03;5126254;28;20991;-55
2022/06/28 05:01:26;;;;;;;16.23;10.87;;;20.30;99.90;;;20.80;66.59;95266.16;5126542;27;20492;-53
2022/06/28 05:03:54;;;;;;;13.50;9.40;;;20.40;99.90;;;20.84;66.43;95264.75;5127677;27;20456;-54
2022/06/28 05:06:22;;;;;;;21.10;10.13;;;20.40;99.90;;;20.89;66.51;95269.53;5128127;27;20463;-56
2022/06/28 05:08:50;;;;;;;21.83;9.10;;;20.40;99.90;;;20.92;66.31;95267.28;5129629;27;20822;-56
2022/06/28 05:11:17;;;;;;;13.43;10.00;;;20.40;99.90;;;20.95;66.37;95255.38;5127703;27;20532;-53
2022/06/28 05:13:44;;;;;;;19.87;10.80;;;20.50;99.90;;;21.01;66.57;95270.66;5128856;27;20446;-56
2022/06/28 05:16:12;;;;;;;11.33;8.60;;;20.50;99.90;;;21.08;66.35;95260.81;5128258;27;20495;-56
2022/06/28 05:18:39;;;;;;;10.20;9.07;;;20.60;99.90;;;21.17;66.24;95261.50;5127887;27;20455;-54
2022/06/28 05:21:06;;;;;;;11.77;8.10;;;20.70;99.90;;;21.29;66.03;95269.81;5130491;27;20491;-56
2022/06/28 05:23:36;;;;;;;16.93;9.70;;;20.70;99.90;;;21.40;65.37;95269.25;5129681;27;20448;-57
2022/06/28 05:26:04;;;;;;;24.80;10.93;;;20.90;99.70;;;21.52;65.08;95266.03;5124873;27;20511;-56
2022/06/28 05:28:31;;;;;;;22.40;10.50;;;21.00;99.50;;;21.64;64.80;95264.44;5129518;27;20900;-55
2022/06/28 05:30:58;;;;;;;15.73;9.33;;;21.10;99.30;;;21.76;64.99;95260.16;5129129;27;20465;-56
2022/06/28 05:33:26;;;;;;;12.20;8.83;;;21.20;99.50;;;21.94;64.53;95270.34;5128650;27;20837;-55
2022/06/28 05:35:53;;;;;;;15.33;7.87;;;21.30;99.30;;;22.13;64.20;95270.59;5129497;27;20478;-53
2022/06/28 05:38:21;;;;;;;16.70;10.17;;;21.50;99.10;;;22.30;63.60;95266.56;5129025;27;20459;-56
2022/06/28 05:40:49;;;;;;;25.97;9.77;;;21.70;98.70;;;22.44;63.17;95272.75;5129278;27;20824;-54
2022/06/28 05:43:17;;;;;;;11.20;7.27;;;21.80;98.40;;;22.58;63.27;95270.09;5128836;27;20456;-54
2022/06/28 05:45:44;;;;;;;18.57;7.40;;;21.90;98.30;;;22.71;63.09;95270.09;5129111;27;20578;-56
2022/06/28 05:48:11;;;;;;;14.80;7.20;;;22.10;98.30;;;22.89;62.54;95272.16;5128486;27;20448;-55
2022/06/28 05:50:39;;;;;;;15.93;7.60;;;22.20;98.20;;;23.08;62.08;95275.88;5128573;27;20611;-57
2022/06/28 05:53:06;;;;;;;17.53;8.47;;;22.40;98.00;;;23.24;62.41;95270.09;5129242;27;20869;-54
2022/06/28 05:55:33;;;;;;;10.57;7.80;;;22.60;97.90;;;23.40;61.90;95284.94;5128631;27;20855;-59
2022/06/28 05:58:02;;;;;;;9.73;7.00;;;22.70;97.40;;;23.58;60.89;95280.78;5128913;27;20451;-54
2022/06/28 06:00:29;;;;;;;14.47;8.87;;;22.90;97.20;;;23.75;61.36;95289.19;5128479;27;20468;-54
2022/06/28 06:02:57;;;;;;;27.50;8.87;;;23.00;97.10;;;23.93;60.85;95289.34;5127058;27;20987;-52
2022/06/28 06:05:24;;;;;;;18.37;7.40;;;23.20;96.70;;;24.11;59.93;95279.78;5124727;27;21118;-54
2022/06/28 06:07:51;;;;;;;8.03;6.50;;;23.40;96.30;;;24.26;59.13;95282.16;5128284;27;20448;-54
2022/06/28 06:10:19;;;;;;;16.17;7.20;;;23.60;96.00;;;24.38;58.86;95290.38;5128315;27;20992;-55
2022/06/28 06:12:47;;;;;;;9.77;6.70;;;23.70;95.60;;;24.49;58.13;95271.72;5127745;27;20953;-55
2022/06/28 06:15:15;;;;;;;9.67;6.20;;;23.80;95.10;;;24.63;58.51;95272.47;5128263;27;20463;-54
2022/06/28 06:17:43;;;;;;;8.23;7.43;;;24.00;95.00;;;24.73;57.92;95274.66;5126341;27;20456;-56
2022/06/28 06:20:11;;;;;;;10.20;5.70;;;24.00;94.70;;;24.88;58.01;95268.97;5128547;27;21050;-56
2022/06/28 06:22:38;;;;;;;13.13;6.57;;;24.20;94.60;;;25.06;57.75;95266.31;5128037;27;21023;-52
2022/06/28 06:25:07;;;;;;;11.07;7.23;;;24.40;94.50;;;25.21;57.23;95270.53;5127661;27;20493;-54
2022/06/28 06:27:34;;;;;;;17.33;6.90;;;24.50;94.30;;;25.31;56.04;95260.09;5128236;27;20452;-56
2022/06/28 06:30:02;;;;;;;8.60;6.70;;;24.60;93.60;;;25.41;56.26;95255.03;5127825;27;20479;-54
2022/06/28 06:32:30;;;;;;;8.37;7.00;;;24.70;93.30;;;25.51;55.84;95253.69;5126667;27;20467;-55
2022/06/28 06:34:57;;;;;;;7.80;6.60;;;24.80;92.90;;;25.62;55.78;95252.94;5128182;27;20468;-54
2022/06/28 06:37:25;;;;;;;7.63;6.50;;;24.90;92.90;;;25.71;55.51;95248.88;5127286;27;20820;-56
2022/06/28 06:39:52;;;;;;;11.20;6.10;;;25.00;92.70;;;25.88;54.83;95261.75;5128178;27;20450;-57
2022/06/28 06:42:19;;;;;;;13.50;6.50;;;25.20;92.20;;;26.04;55.03;95254.94;5127570;27;20494;-55
2022/06/28 06:44:47;;;;;;;15.70;7.20;;;25.30;91.90;;;26.20;54.63;95256.22;5128197;27;20451;-55
2022/06/28 06:47:14;;;;;;;11.03;6.90;;;25.50;91.70;;;26.32;53.96;95245.47;5127731;27;20460;-56
2022/06/28 06:49:43;;;;;;;7.73;6.93;;;25.60;91.40;;;26.41;53.77;95236.81;5127496;27;20982;-56
2022/06/28 06:52:10;;;;;;;12.33;6.90;;;25.70;91.20;;;26.55;53.33;95240.13;5127335;27;20462;-53
2022/06/28 06:54:37;;;;;;;12.10;6.30;;;25.80;90.90;;;26.71;53.55;95248.63;5122926;27;20500;-54
2022/06/28 06:57:05;;;;;;;11.13;6.07;;;25.90;90.80;;;26.87;53.36;95249.84;5127535;27;20642;-55
2022/06/28 06:59:33;;;;;;;9.87;7.50;;;26.10;91.20;;;26.99;53.12;95242.59;5127688;27;20448;-53
2022/06/28 07:02:00;;;;;;;8.47;6.67;;;26.20;90.60;;;27.08;52.61;95240.34;5126713;27;21168;-57
2022/06/28 07:04:27;;;;;;;10.03;7.90;;;26.30;90.10;;;27.14;52.44;95237.53;5121026;27;20439;-54
2022/06/28 07:06:56;;;;;;;11.47;7.53;;;26.40;89.50;;;27.22;52.29;95243.63;5126138;27;20471;-55
2022/06/28 07:09:24;;;;;;;30.40;7.43;;;26.50;89.20;;;27.33;52.08;95238.25;5127198;27;20531;-54
2022/06/28 07:11:51;;;;;;;11.33;6.53;;;26.60;88.50;;;27.51;52.30;95229.22;5123091;27;20536;-54
2022/06/28 07:14:18;;;;;;;6.80;6.07;;;26.70;88.40;;;27.73;51.69;95236.66;5127187;27;20952;-56
2022/06/28 07:16:46;;;;;;;14.03;7.37;;;27.00;87.90;;;27.89;50.95;95238.63;5124696;27;20472;-55
2022/06/28 07:19:13;;;;;;;9.60;6.27;;;27.10;86.50;;;28.00;50.60;95225.34;5127196;27;20960;-54
2022/06/28 07:21:41;;;;;;;10.90;6.70;;;27.30;85.70;;;28.15;50.72;95236.47;5127018;27;20496;-56
2022/06/28 07:24:10;;;;;;;12.33;6.73;;;27.40;85.20;;;28.32;50.15;95227.56;5126342;27;20454;-56
2022/06/28 07:26:37;;;;;;;9.93;6.67;;;27.60;84.30;;;28.48;50.14;95234.09;5126851;27;20964;-54
2022/06/28 07:29:04;;;;;;;11.53;6.27;;;27.70;83.70;;;28.65;49.84;95229.53;5127269;27;20444;-54
2022/06/28 07:31:32;;;;;;;7.50;6.53;;;27.90;83.80;;;28.85;49.59;95228.25;5127107;27;20474;-56
2022/06/28 07:33:59;;;;;;;9.13;6.57;;;28.10;83.00;;;28.99;49.07;95234.97;5125749;27;20443;-55
2022/06/28 07:36:26;;;;;;;9.80;6.70;;;28.20;81.60;;;29.10;49.05;95238.66;5127003;27;20471;-55
2022/06/28 07:38:54;;;;;;;13.40;7.60;;;28.30;81.30;;;29.20;49.31;95236.09;5126818;27;20534;-54
2022/06/28 07:41:23;;;;;;;9.07;6.90;;;28.40;81.30;;;29.27;49.17;95239.47;5122614;27;20510;-54
2022/06/28 07:43:51;;;;;;;9.40;6.30;;;28.50;80.60;;;29.42;49.12;95240.75;5127077;27;20539;-55
2022/06/28 07:46:19;;;;;;;12.30;6.20;;;28.60;80.20;;;29.56;48.32;95238.50;5126929;27;20931;-54
2022/06/28 07:48:46;;;;;;;5.73;5.17;;;28.70;79.60;;;29.68;47.52;95236.50;5127043;27;20482;-55
2022/06/28 07:53:58;;;;;;;5.93;5.10;;;29.10;76.30;;;29.98;47.06;95227.97;5124235;27;20459;-52
2022/06/28 07:56:27;;;;;;;7.13;5.70;;;29.20;74.60;;;30.13;46.02;95230.03;5126697;27;20478;-55
2022/06/28 07:58:54;;;;;;;6.63;5.13;;;29.30;73.30;;;30.21;45.85;95229.56;5126928;27;20297;-54
2022/06/28 08:01:21;;;;;;;14.23;5.37;;;29.40;71.50;;;30.28;45.51;95226.66;5123938;27;20229;-55
2022/06/28 08:03:49;;;;;;;13.53;5.13;;;29.50;70.50;;;30.34;44.20;95227.53;5126485;27;20208;-53
2022/06/28 08:06:16;;;;;;;5.93;5.43;;;29.60;69.00;;;30.41;45.13;95221.94;5126690;27;20210;-56
2022/06/28 08:08:43;;;;;;;6.00;5.27;;;29.70;69.60;;;30.44;44.98;95221.41;5126479;27;20198;-57
2022/06/28 08:11:11;;;;;;;6.50;5.10;;;29.70;69.00;;;30.55;44.80;95213.13;5126892;28;20775;-55
2022/06/28 08:13:40;;;;;;;4.70;4.30;;;29.80;68.20;;;30.69;43.73;95216.22;5126745;28;20201;-56
2022/06/28 08:16:07;;;;;;;5.17;4.50;;;29.90;68.00;;;30.86;44.11;95217.97;5125268;28;20218;-55
2022/06/28 08:18:34;;;;;;;5.50;4.53;;;30.00;67.40;;;30.99;42.14;95216.78;5124362;28;20198;-56
2022/06/28 08:21:01;;;;;;;6.60;5.23;;;30.20;64.20;;;31.13;43.27;95217.13;5128361;28;20226;-56
2022/06/28 08:23:29;;;;;;;4.33;4.03;;;30.30;65.10;;;31.26;43.09;95216.66;5125779;28;20236;-56
2022/06/28 08:25:56;;;;;;;8.43;5.40;;;30.50;65.20;;;31.39;42.79;95216.22;5126732;28;20222;-57
2022/06/28 08:28:24;;;;;;;6.43;4.80;;;30.60;63.90;;;31.47;42.04;95217.63;5126750;28;20570;-55
2022/06/28 08:30:52;;;;;;;7.67;6.37;;;30.70;63.70;;;31.45;42.26;95215.16;5126674;28;20310;-57
2022/06/28 08:33:20;;;;;;;19.30;7.60;;;30.70;62.90;;;31.48;42.59;95218.44;5126347;28;20222;-56
2022/06/28 08:35:47;;;;;;;19.33;6.15;;;30.70;62.50;;;31.46;42.04;95224.13;5127194;27;20222;-55
2022/06/28 08:38:14;;;;;;;27.08;7.25;;;30.70;62.90;;;31.47;42.23;95217.63;5130969;27;20658;-56
2022/06/28 08:40:42;;;;;;;46.47;11.25;;;30.80;62.20;;;31.46;41.58;95215.97;5130759;27;20214;-57
2022/06/28 08:43:10;;;;;;;24.77;9.30;;;30.70;61.20;;;31.41;42.06;95218.66;5130321;27;20631;-55
2022/06/28 08:45:37;;;;;;;277.50;42.67;;;30.70;61.00;;;31.38;42.21;95225.44;5130683;27;20229;-56
2022/06/28 08:48:14;;;;;;;44.43;9.90;;;30.70;61.80;;;31.41;42.55;95222.19;5130492;27;20202;-56
2022/06/28 08:50:42;;;;;;;7.60;4.90;;;30.70;61.90;;;31.46;42.14;95216.81;5130684;27;20253;-57
2022/06/28 08:53:10;;;;;;;12.80;5.33;;;30.70;61.40;;;31.56;42.03;95213.34;5130068;27;20206;-58
2022/06/28 08:55:38;;;;;;;7.82;5.00;;;30.80;61.50;;;31.63;41.92;95221.25;5130410;27;20222;-55
2022/06/28 08:58:07;;;;;;;15.50;4.67;;;30.90;61.00;;;31.64;42.07;95220.19;5130289;27;20206;-57
2022/06/28 09:00:35;;;;;;;7.03;4.93;;;31.00;60.70;;;31.67;41.75;95214.22;5130244;27;20590;-53
2022/06/28 09:03:02;;;;;;;11.35;5.20;;;31.00;61.00;;;31.67;41.68;95221.53;5129171;27;20290;-57
2022/06/28 09:05:31;;;;;;;7.20;4.77;;;31.00;60.10;;;31.66;41.16;95220.72;5130044;27;20214;-57
2022/06/28 09:07:58;;;;;;;6.50;4.07;;;30.90;59.50;;;31.62;41.15;95220.44;5130436;27;20202;-56
2022/06/28 09:10:26;;;;;;;5.80;4.07;;;30.90;59.50;;;31.63;41.08;95218.53;5126083;27;20234;-56
2022/06/28 09:13:09;;;;;;;3.95;3.63;;;30.90;59.30;;;31.67;40.32;95214.22;5130278;27;20213;-57
2022/06/28 09:15:56;;;;;;;6.10;3.97;;;31.00;57.60;;;31.68;40.29;95213.13;5130104;27;20710;-56
2022/06/28 09:18:27;;;;;;;3.77;3.47;;;30.90;56.90;;;31.70;40.28;95208.25;5126057;27;20568;-56
2022/06/28 09:20:57;;;;;;;5.25;3.95;;;31.00;57.70;;;31.70;40.54;95207.41;5127141;27;20218;-55
2022/06/28 09:23:27;;;;;;;6.45;3.95;;;31.00;57.80;;;31.70;40.20;95210.97;5129424;27;20222;-55
2022/06/28 09:25:56;;;;;;;4.65;4.32;;;31.00;57.60;;;31.61;39.74;95210.66;5129338;27;20218;-56
2022/06/28 09:28:29;;;;;;;10.32;5.20;;;30.90;56.90;;;31.64;40.42;95207.41;5129304;27;20622;-54
2022/06/28 09:31:17;;;;;;;6.50;4.47;;;30.90;57.90;;;31.77;40.20;95199.84;5125528;27;20798;-55
2022/06/28 09:33:44;;;;;;;6.18;4.35;;;31.00;57.80;;;31.90;40.53;95209.41;5128193;27;20210;-54
2022/06/28 09:36:14;;;;;;;5.22;4.50;;;31.10;57.70;;;32.01;39.84;95213.81;5129784;27;20222;-56
2022/06/28 09:38:41;;;;;;;4.88;4.10;;;31.30;57.20;;;32.08;40.16;95206.19;5129561;27;20341;-56
2022/06/28 09:41:24;;;;;;;7.20;4.28;;;31.40;57.20;;;32.13;39.86;95200.81;5129319;27;20222;-56
2022/06/28 09:43:59;;;;;;;7.60;5.03;;;31.40;56.50;;;32.23;39.71;95200.03;5130216;27;20837;-57
2022/06/28 09:46:28;;;;;;;4.78;4.28;;;31.50;56.70;;;32.28;39.48;95191.84;5129448;27;20231;-56
2022/06/28 09:48:59;;;;;;;4.22;3.83;;;31.50;55.60;;;32.39;39.67;95195.41;5128382;27;20202;-57
2022/06/28 09:51:29;;;;;;;4.15;3.92;;;31.60;56.30;;;32.50;39.42;95191.63;5125109;27;20225;-56
2022/06/28 09:53:58;;;;;;;7.43;4.15;;;31.70;56.30;;;32.61;38.39;95181.56;5129769;27;20229;-58
2022/06/28 09:56:26;;;;;;;7.78;3.78;;;31.90;55.10;;;32.65;39.41;95187.31;5129044;27;20225;-56
2022/06/28 09:58:54;;;;;;;8.10;3.95;;;31.90;55.70;;;32.71;39.25;95183.50;5129185;27;20587;-55
2022/06/28 10:01:21;;;;;;;3.70;3.50;;;31.90;55.40;;;32.68;38.64;95176.69;5128348;27;20222;-56
2022/06/28 10:03:49;;;;;;;4.78;4.28;;;32.00;54.10;;;32.59;38.54;95180.19;5125413;27;20226;-56
2022/06/28 10:06:18;;;;;;;8.85;4.15;;;31.90;54.30;;;32.52;38.72;95180.47;5128557;27;20222;-57
2022/06/28 10:08:47;;;;;;;4.60;4.07;;;31.80;54.50;;;32.43;38.82;95185.63;5129488;27;20227;-57
2022/06/28 10:11:15;;;;;;;4.65;4.25;;;31.70;54.70;;;32.37;38.25;95186.72;5129056;27;20250;-55
2022/06/28 10:16:38;;;;;;;3.92;3.72;;;31.70;55.40;;;32.45;39.39;95180.72;5122852;27;20225;-54
2022/06/28 10:19:06;;;;;;;5.22;4.05;;;31.70;55.50;;;32.59;39.14;95175.56;5125130;27;20198;-56
2022/06/28 10:21:44;;;;;;;5.22;4.50;;;31.80;55.20;;;32.73;38.71;95173.13;5127697;27;20257;-57
2022/06/28 10:24:13;;;;;;;4.40;4.00;;;32.00;54.90;;;32.76;38.36;95166.34;5127995;27;20217;-57
2022/06/28 10:26:44;;;;;;;3.83;3.60;;;32.00;54.30;;;32.74;38.49;95163.06;5125057;27;20229;-55
2022/06/28 10:29:11;;;;;;;4.38;3.97;;;32.00;53.90;;;32.73;38.89;95175.06;5128270;27;20199;-54
2022/06/28 10:31:40;;;;;;;8.30;4.50;;;32.00;54.70;;;32.75;38.16;95170.97;5127351;27;20330;-54